Time;durP1;ratioP1;P1;durP2;ratioP2;P2;SDS_P1;SDS_P2;PMS_P1;PMS_P2;Temp;Humidity;BMP_temperature;BMP_pressure;BME280_temperature;BME280_humidity;BME280_pressure;Samples;Min_cycle;Max_cycle;Signal;HPM_P1;HPM_P2
2021/04/30 00:01:13;;;;;;;22.63;18.30;;;;;;;;;;5039021;28;20454;-71
2021/04/30 00:03:40;;;;;;;25.53;16.93;;;;;;;;;;5039035;28;20799;-71
2021/04/30 00:06:09;;;;;;;24.03;17.47;;;;;;;;;;5038392;28;20867;-71
2021/04/30 00:08:38;;;;;;;21.27;16.17;;;;;;;;;;5038484;28;20495;-71
2021/04/30 00:11:06;;;;;;;26.87;18.63;;;;;;;;;;5037975;28;20469;-71
2021/04/30 00:13:36;;;;;;;27.40;19.60;;;;;;;;;;5038207;28;20466;-71
2021/04/30 00:16:03;;;;;;;18.33;14.80;;;;;;;;;;5038605;28;20798;-71
2021/04/30 00:18:30;;;;;;;27.23;17.17;;;;;;;;;;5038190;28;20490;-71
2021/04/30 00:20:59;;;;;;;24.17;17.00;;;;;;;;;;5038260;28;20734;-71
2021/04/30 00:23:29;;;;;;;19.23;15.93;;;;;;;;;;5038105;28;20536;-71
2021/04/30 00:25:57;;;;;;;21.70;17.37;;;;;;;;;;5038300;28;20455;-71
2021/04/30 00:28:25;;;;;;;27.43;18.47;;;;;;;;;;5038544;28;20490;-70
2021/04/30 00:30:53;;;;;;;20.80;15.87;;;;;;;;;;5019916;28;20565;-71
2021/04/30 00:33:21;;;;;;;24.47;17.97;;;;;;;;;;5038193;28;20466;-71
2021/04/30 00:35:48;;;;;;;25.10;18.40;;;;;;;;;;5038304;28;20470;-71
2021/04/30 00:38:18;;;;;;;24.13;17.63;;;;;;;;;;5038240;28;20867;-71
2021/04/30 00:40:47;;;;;;;26.77;18.63;;;;;;;;;;5038289;28;20569;-71
2021/04/30 00:43:14;;;;;;;20.50;16.70;;;;;;;;;;5038029;28;20494;-71
2021/04/30 00:45:41;;;;;;;22.80;18.07;;;;;;;;;;5038390;28;20783;-71
2021/04/30 00:48:10;;;;;;;20.60;16.90;;;;;;;;;;5038238;28;20469;-71
2021/04/30 00:50:37;;;;;;;25.37;17.30;;;;;;;;;;5037799;28;20478;-71
2021/04/30 00:53:05;;;;;;;28.80;20.00;;;;;;;;;;5037610;28;20458;-71
2021/04/30 00:55:34;;;;;;;27.47;20.80;;;;;;;;;;5038279;28;20466;-71
2021/04/30 00:58:04;;;;;;;23.40;18.87;;;;;;;;;;5037239;28;20855;-71
2021/04/30 01:00:32;;;;;;;21.83;18.60;;;;;;;;;;5037879;28;20474;-71
2021/04/30 01:03:00;;;;;;;30.93;20.27;;;;;;;;;;5037424;28;20896;-71
2021/04/30 01:05:27;;;;;;;28.10;20.07;;;;;;;;;;5037550;28;20525;-71
2021/04/30 01:07:55;;;;;;;29.10;21.20;;;;;;;;;;5037360;28;20871;-71
2021/04/30 01:10:23;;;;;;;21.87;16.30;;;;;;;;;;5037375;28;20564;-71
2021/04/30 01:12:50;;;;;;;24.67;17.60;;;;;;;;;;5037445;28;20459;-70
2021/04/30 01:15:21;;;;;;;27.70;19.47;;;;;;;;;;5037647;28;20553;-71
2021/04/30 01:17:49;;;;;;;25.30;17.50;;;;;;;;;;5037289;28;20895;-70
2021/04/30 01:20:18;;;;;;;29.60;20.83;;;;;;;;;;5037477;28;20767;-71
2021/04/30 01:22:48;;;;;;;22.77;16.90;;;;;;;;;;5037560;28;20876;-71
2021/04/30 01:25:16;;;;;;;28.57;19.57;;;;;;;;;;5037032;28;20470;-71
2021/04/30 01:27:44;;;;;;;28.10;20.13;;;;;;;;;;5037064;28;20731;-71
2021/04/30 01:30:15;;;;;;;26.60;19.20;;;;;;;;;;5036989;28;20494;-71
2021/04/30 01:32:44;;;;;;;25.43;18.50;;;;;;;;;;5037479;28;20466;-70
2021/04/30 01:35:12;;;;;;;25.97;19.33;;;;;;;;;;5037104;28;20467;-71
2021/04/30 01:37:40;;;;;;;28.00;17.90;;;;;;;;;;5037281;28;20482;-71
2021/04/30 01:40:16;;;;;;;22.73;17.87;;;;;;;;;;5037672;28;20497;-71
2021/04/30 01:42:59;;;;;;;27.37;19.07;;;;;;;;;;5037427;28;20461;-72
2021/04/30 01:45:32;;;;;;;27.20;19.47;;;;;;;;;;5037152;28;20470;-72
2021/04/30 01:48:00;;;;;;;25.20;19.53;;;;;;;;;;5037427;28;20486;-71
2021/04/30 01:50:27;;;;;;;27.03;19.60;;;;;;;;;;5036864;28;20500;-71
2021/04/30 01:52:54;;;;;;;30.93;20.00;;;;;;;;;;5036658;28;20898;-71
2021/04/30 01:58:27;;;;;;;25.03;20.20;;;;;;;;;;5036524;28;20853;-71
2021/04/30 02:00:55;;;;;;;28.23;20.97;;;;;;;;;;5036073;28;20487;-71
2021/04/30 02:03:22;;;;;;;26.93;20.27;;;;;;;;;;5036676;28;20474;-72
2021/04/30 02:05:52;;;;;;;29.17;20.67;;;;;;;;;;5036417;28;20528;-72
2021/04/30 02:08:21;;;;;;;31.20;19.43;;;;;;;;;;5036202;28;20476;-72
2021/04/30 02:10:54;;;;;;;25.20;19.80;;;;;;;;;;5040813;28;20517;-72
2021/04/30 02:13:26;;;;;;;25.13;18.27;;;;;;;;;;5040888;28;20493;-71
2021/04/30 02:15:55;;;;;;;25.90;18.50;;;;;;;;;;5040621;28;20944;-72
2021/04/30 02:18:22;;;;;;;25.90;20.60;;;;;;;;;;5040674;28;20925;-71
2021/04/30 02:20:50;;;;;;;30.30;19.40;;;;;;;;;;5040636;28;20454;-72
2021/04/30 02:23:17;;;;;;;25.83;19.67;;;;;;;;;;5040626;28;20463;-72
2021/04/30 02:25:44;;;;;;;25.60;19.33;;;;;;;;;;5040427;28;20458;-72
2021/04/30 02:28:12;;;;;;;30.03;22.30;;;;;;;;;;5040597;28;20488;-72
2021/04/30 02:30:40;;;;;;;28.67;20.30;;;;;;;;;;5040009;28;20524;-72
2021/04/30 02:33:09;;;;;;;31.23;23.60;;;;;;;;;;5040598;28;20567;-72
2021/04/30 02:35:38;;;;;;;31.43;23.37;;;;;;;;;;5040212;28;20458;-71
2021/04/30 02:38:06;;;;;;;31.87;23.37;;;;;;;;;;5040428;28;20473;-71
2021/04/30 02:40:35;;;;;;;33.47;24.90;;;;;;;;;;5040393;28;20537;-71
2021/04/30 02:43:05;;;;;;;38.20;23.73;;;;;;;;;;5040608;28;20583;-71
2021/04/30 02:45:34;;;;;;;29.90;21.53;;;;;;;;;;5040402;28;20534;-72
2021/04/30 02:48:02;;;;;;;38.90;26.40;;;;;;;;;;5040495;28;20857;-72
2021/04/30 02:50:32;;;;;;;31.10;22.67;;;;;;;;;;5039873;28;20490;-72
2021/04/30 02:53:03;;;;;;;34.07;23.57;;;;;;;;;;5040179;28;20473;-72
2021/04/30 02:55:31;;;;;;;33.33;23.67;;;;;;;;;;5039787;28;20468;-72
2021/04/30 02:58:00;;;;;;;28.67;21.07;;;;;;;;;;5040246;28;20553;-72
2021/04/30 03:00:28;;;;;;;33.73;26.20;;;;;;;;;;5039648;28;20755;-71
2021/04/30 03:02:56;;;;;;;31.80;23.03;;;;;;;;;;5039796;28;20463;-71
2021/04/30 03:05:28;;;;;;;29.23;20.17;;;;;;;;;;5039663;28;20462;-73
2021/04/30 03:07:56;;;;;;;33.33;22.10;;;;;;;;;;5039949;28;20586;-71
2021/04/30 03:10:24;;;;;;;34.40;24.17;;;;;;;;;;5039319;28;20585;-71
2021/04/30 03:12:51;;;;;;;30.77;23.03;;;;;;;;;;5040117;28;20532;-72
2021/04/30 03:15:18;;;;;;;29.80;21.03;;;;;;;;;;5039128;28;20470;-71
2021/04/30 03:17:47;;;;;;;33.07;22.93;;;;;;;;;;5039472;28;20471;-72
2021/04/30 03:20:18;;;;;;;33.93;22.97;;;;;;;;;;5038587;28;20474;-72
2021/04/30 03:22:45;;;;;;;33.07;25.43;;;;;;;;;;5039145;28;20474;-72
2021/04/30 03:25:14;;;;;;;34.33;24.57;;;;;;;;;;5039726;28;20462;-72
2021/04/30 03:27:43;;;;;;;33.77;24.87;;;;;;;;;;5039163;28;20462;-73
2021/04/30 03:30:11;;;;;;;27.13;19.83;;;;;;;;;;5038346;28;20548;-72
2021/04/30 03:32:39;;;;;;;29.70;22.73;;;;;;;;;;5018926;28;20466;-72
2021/04/30 03:35:07;;;;;;;30.93;22.43;;;;;;;;;;5019182;28;20463;-72
2021/04/30 03:37:34;;;;;;;28.83;21.13;;;;;;;;;;5019504;28;20475;-72
2021/04/30 03:40:02;;;;;;;28.10;20.40;;;;;;;;;;5028206;28;20458;-71
2021/04/30 03:42:31;;;;;;;27.90;20.77;;;;;;;;;;5038818;28;20462;-71
2021/04/30 03:44:58;;;;;;;26.20;18.17;;;;;;;;;;5038651;28;20886;-72
2021/04/30 03:47:29;;;;;;;29.70;21.47;;;;;;;;;;5023262;28;20469;-72
2021/04/30 03:49:56;;;;;;;25.43;20.83;;;;;;;;;;5037963;28;20490;-71
2021/04/30 03:52:29;;;;;;;25.63;19.70;;;;;;;;;;5038433;28;20466;-71
2021/04/30 03:54:59;;;;;;;25.80;17.50;;;;;;;;;;5038266;28;20458;-71
2021/04/30 03:57:28;;;;;;;24.00;19.03;;;;;;;;;;5037659;28;20721;-71
2021/04/30 03:59:57;;;;;;;27.73;18.10;;;;;;;;;;5038449;28;20557;-72
2021/04/30 04:02:24;;;;;;;31.60;20.20;;;;;;;;;;5037857;28;20446;-71
2021/04/30 04:04:52;;;;;;;26.60;19.30;;;;;;;;;;5037747;28;20483;-71
2021/04/30 04:07:22;;;;;;;25.87;19.80;;;;;;;;;;5037744;28;20501;-70
2021/04/30 04:09:55;;;;;;;26.17;18.87;;;;;;;;;;5038516;28;20500;-71
2021/04/30 04:12:23;;;;;;;28.70;20.53;;;;;;;;;;5036675;28;20540;-70
2021/04/30 04:14:50;;;;;;;26.07;19.20;;;;;;;;;;5036420;28;20459;-72
2021/04/30 04:17:18;;;;;;;32.13;20.23;;;;;;;;;;5037903;28;20459;-71
2021/04/30 04:19:48;;;;;;;27.77;19.27;;;;;;;;;;5037487;28;21019;-72
2021/04/30 04:22:18;;;;;;;24.67;19.37;;;;;;;;;;5038134;28;20458;-72
2021/04/30 04:24:46;;;;;;;35.77;21.37;;;;;;;;;;5038301;28;20466;-71
2021/04/30 04:27:13;;;;;;;27.57;19.37;;;;;;;;;;5037672;28;20509;-72
2021/04/30 04:29:41;;;;;;;29.80;21.90;;;;;;;;;;5037066;28;20487;-72
2021/04/30 04:32:08;;;;;;;27.77;18.53;;;;;;;;;;5036635;28;20463;-72
2021/04/30 04:34:43;;;;;;;23.80;20.57;;;;;;;;;;5037904;28;20520;-71
2021/04/30 04:37:10;;;;;;;28.07;18.90;;;;;;;;;;5037374;28;20451;-71
2021/04/30 04:39:37;;;;;;;28.03;18.93;;;;;;;;;;5036787;28;20498;-71
2021/04/30 04:42:05;;;;;;;25.03;18.47;;;;;;;;;;5037418;28;20463;-72
2021/04/30 04:44:36;;;;;;;25.20;18.90;;;;;;;;;;5037678;28;20463;-71
2021/04/30 04:47:04;;;;;;;25.17;19.23;;;;;;;;;;5038152;28;20463;-71
2021/04/30 04:49:32;;;;;;;22.80;18.57;;;;;;;;;;5037513;28;20949;-71
2021/04/30 04:52:01;;;;;;;17.70;14.73;;;;;;;;;;5036468;28;20455;-72
2021/04/30 04:54:28;;;;;;;20.97;14.77;;;;;;;;;;5036442;28;20806;-72
2021/04/30 04:56:56;;;;;;;21.30;15.13;;;;;;;;;;5036210;28;20554;-71
2021/04/30 04:59:24;;;;;;;20.00;15.13;;;;;;;;;;5035618;28;20566;-71
2021/04/30 05:01:51;;;;;;;21.10;14.87;;;;;;;;;;5035872;28;20459;-72
2021/04/30 05:04:18;;;;;;;18.00;14.13;;;;;;;;;;5036010;28;20467;-71
2021/04/30 05:06:48;;;;;;;14.90;13.23;;;;;;;;;;5036329;28;20466;-71
2021/04/30 05:09:17;;;;;;;22.50;12.97;;;;;;;;;;5036408;28;20497;-71
2021/04/30 05:11:47;;;;;;;17.20;14.10;;;;;;;;;;5035859;28;20451;-72
2021/04/30 05:14:14;;;;;;;19.00;15.40;;;;;;;;;;5035241;28;20466;-71
2021/04/30 05:16:41;;;;;;;17.60;14.90;;;;;;;;;;5034953;28;20875;-71
2021/04/30 05:19:10;;;;;;;18.33;14.40;;;;;;;;;;5036953;28;20757;-71
2021/04/30 05:21:40;;;;;;;22.43;14.43;;;;;;;;;;5035891;28;20462;-71
2021/04/30 05:24:13;;;;;;;18.60;13.50;;;;;;;;;;5035457;28;20493;-72
2021/04/30 05:26:45;;;;;;;19.73;14.83;;;;;;;;;;5035298;28;20912;-71
2021/04/30 05:29:14;;;;;;;18.67;15.00;;;;;;;;;;5035504;28;20513;-71
2021/04/30 05:31:42;;;;;;;22.23;15.80;;;;;;;;;;5034131;28;20471;-71
2021/04/30 05:34:09;;;;;;;15.80;13.30;;;;;;;;;;5034473;28;20700;-71
2021/04/30 05:36:42;;;;;;;15.03;13.00;;;;;;;;;;5033732;28;20450;-71
2021/04/30 05:39:25;;;;;;;13.13;11.13;;;;;;;;;;5032706;28;20535;-72
2021/04/30 05:41:53;;;;;;;13.57;11.37;;;;;;;;;;5033588;28;20508;-71
2021/04/30 05:44:23;;;;;;;16.73;12.70;;;;;;;;;;5034726;28;20459;-72
2021/04/30 05:46:50;;;;;;;15.77;12.30;;;;;;;;;;5035378;28;20451;-72
2021/04/30 05:49:21;;;;;;;18.90;14.63;;;;;;;;;;5033462;28;20502;-71
2021/04/30 05:51:53;;;;;;;13.27;11.53;;;;;;;;;;5033601;28;20467;-71
2021/04/30 05:54:20;;;;;;;15.07;13.07;;;;;;;;;;5033319;28;20721;-72
2021/04/30 05:56:48;;;;;;;19.00;12.90;;;;;;;;;;5033718;28;20539;-71
2021/04/30 05:59:16;;;;;;;17.47;11.90;;;;;;;;;;5032571;28;20478;-72
2021/04/30 06:01:49;;;;;;;14.90;11.67;;;;;;;;;;5034539;28;20451;-71
2021/04/30 06:04:17;;;;;;;19.60;12.50;;;;;;;;;;5035119;28;20515;-72
2021/04/30 06:06:50;;;;;;;15.07;12.17;;;;;;;;;;5034048;28;20458;-72
2021/04/30 06:09:18;;;;;;;13.93;12.43;;;;;;;;;;5036050;28;20490;-72
2021/04/30 06:11:53;;;;;;;13.27;10.60;;;;;;;;;;5035216;28;20566;-72
2021/04/30 06:14:25;;;;;;;14.07;11.27;;;;;;;;;;5034577;28;20462;-71
2021/04/30 06:16:53;;;;;;;15.80;11.97;;;;;;;;;;5035347;28;20451;-70
2021/04/30 06:19:24;;;;;;;14.20;11.93;;;;;;;;;;5036462;28;20470;-71
2021/04/30 06:21:55;;;;;;;15.00;11.67;;;;;;;;;;5035158;28;20536;-71
2021/04/30 06:24:24;;;;;;;12.70;9.77;;;;;;;;;;5035911;28;20536;-71
2021/04/30 06:27:04;;;;;;;15.70;10.60;;;;;;;;;;5036552;28;20466;-71
2021/04/30 06:29:33;;;;;;;13.03;11.73;;;;;;;;;;5037611;28;20766;-71
2021/04/30 06:32:08;;;;;;;15.30;11.73;;;;;;;;;;5036698;28;20474;-71
2021/04/30 06:34:35;;;;;;;12.63;10.30;;;;;;;;;;5039295;28;20470;-72
2021/04/30 06:37:17;;;;;;;;;;;;;;;;;;;;;
2021/04/30 06:39:59;;;;;;;14.23;12.30;;;;;;;;;;5037180;28;21076;-71
2021/04/30 06:42:30;;;;;;;14.30;11.63;;;;;;;;;;5037733;28;20836;-72
2021/04/30 06:45:17;;;;;;;21.10;13.17;;;;;;;;;;5036661;28;20928;-70
2021/04/30 06:47:49;;;;;;;14.23;10.77;;;;;;;;;;5036935;28;20474;-71
2021/04/30 06:50:21;;;;;;;15.27;10.90;;;;;;;;;;5037185;28;20577;-71
2021/04/30 06:52:49;;;;;;;17.00;13.10;;;;;;;;;;5037004;28;20462;-71
2021/04/30 06:55:24;;;;;;;15.50;12.00;;;;;;;;;;5038787;28;20532;-71
2021/04/30 06:58:11;;;;;;;19.23;12.20;;;;;;;;;;5041017;28;20835;-71
2021/04/30 07:00:39;;;;;;;16.60;12.10;;;;;;;;;;5039315;28;20785;-71
2021/04/30 07:03:12;;;;;;;17.60;12.17;;;;;;;;;;5038740;28;20450;-71
2021/04/30 07:05:39;;;;;;;17.20;12.60;;;;;;;;;;5039340;28;20469;-71
2021/04/30 07:10:54;;;;;;;17.33;11.77;;;;;;;;;;5039046;28;20493;-72
2021/04/30 07:13:21;;;;;;;18.30;11.77;;;;;;;;;;5040501;28;20488;-70
2021/04/30 07:15:55;;;;;;;17.23;12.80;;;;;;;;;;5040079;28;20470;-72
2021/04/30 07:18:40;;;;;;;19.13;12.50;;;;;;;;;;5019923;28;20497;-72
2021/04/30 07:21:16;;;;;;;14.83;11.67;;;;;;;;;;5020835;28;20467;-71
2021/04/30 07:23:52;;;;;;;16.03;11.70;;;;;;;;;;5019695;28;21046;-69
2021/04/30 07:26:26;;;;;;;18.30;12.63;;;;;;;;;;5019415;28;20510;-71
2021/04/30 07:28:54;;;;;;;17.53;12.50;;;;;;;;;;5019998;28;20466;-71
2021/04/30 07:31:30;;;;;;;15.03;11.17;;;;;;;;;;5017758;28;20467;-71
2021/04/30 07:33:58;;;;;;;16.70;12.17;;;;;;;;;;5036952;28;20447;-71
2021/04/30 07:36:27;;;;;;;14.53;11.70;;;;;;;;;;5039111;28;20816;-72
2021/04/30 07:38:54;;;;;;;17.37;11.03;;;;;;;;;;5038830;28;20462;-71
2021/04/30 07:44:14;;;;;;;14.23;11.40;;;;;;;;;;5035555;28;20565;-71
2021/04/30 07:46:44;;;;;;;16.20;10.80;;;;;;;;;;5038579;28;20520;-72
2021/04/30 07:49:12;;;;;;;16.30;11.97;;;;;;;;;;5037251;28;20518;-71
2021/04/30 07:51:40;;;;;;;16.40;12.03;;;;;;;;;;5037525;28;20462;-70
2021/04/30 07:54:07;;;;;;;15.00;12.23;;;;;;;;;;5038262;28;20469;-71
2021/04/30 07:56:35;;;;;;;15.90;12.47;;;;;;;;;;5037451;28;20455;-72
2021/04/30 07:59:02;;;;;;;17.43;11.23;;;;;;;;;;5036656;28;20528;-71
2021/04/30 08:04:27;;;;;;;15.10;11.40;;;;;;;;;;5035433;28;20467;-71
2021/04/30 08:06:56;;;;;;;13.80;10.50;;;;;;;;;;5036049;28;20529;-71
2021/04/30 08:09:24;;;;;;;12.63;10.27;;;;;;;;;;5036730;28;20486;-71
2021/04/30 08:11:52;;;;;;;15.47;11.73;;;;;;;;;;5035676;28;20740;-71
2021/04/30 08:14:26;;;;;;;15.23;11.40;;;;;;;;;;5028853;28;20832;-71
2021/04/30 08:16:56;;;;;;;14.00;10.70;;;;;;;;;;5019647;28;20470;-72
2021/04/30 08:19:31;;;;;;;15.43;11.73;;;;;;;;;;5031571;28;20565;-72
2021/04/30 08:22:00;;;;;;;15.33;11.00;;;;;;;;;;5035806;28;20456;-71
2021/04/30 08:24:31;;;;;;;12.13;10.73;;;;;;;;;;5036639;28;20478;-70
2021/04/30 08:27:08;;;;;;;11.37;9.13;;;;;;;;;;5035686;28;20462;-70
2021/04/30 08:30:04;;;;;;;14.27;9.83;;;;;;;;;;5026297;28;20542;-70
2021/04/30 08:32:43;;;;;;;11.67;9.60;;;;;;;;;;5016306;28;20483;-72
2021/04/30 08:35:32;;;;;;;17.13;10.30;;;;;;;;;;5017594;28;20518;-72
2021/04/30 08:38:23;;;;;;;13.60;8.87;;;;;;;;;;5017095;28;20452;-73
2021/04/30 08:41:02;;;;;;;11.80;9.47;;;;;;;;;;5016412;28;20455;-72
2021/04/30 08:43:35;;;;;;;13.30;9.47;;;;;;;;;;5018025;28;20706;-71
2021/04/30 08:46:03;;;;;;;15.70;10.13;;;;;;;;;;5027340;28;20439;-71
2021/04/30 08:48:34;;;;;;;10.53;7.90;;;;;;;;;;5035897;28;20480;-71
2021/04/30 08:51:04;;;;;;;12.60;8.80;;;;;;;;;;5035182;28;20497;-71
2021/04/30 08:53:32;;;;;;;13.57;8.60;;;;;;;;;;5026364;28;20558;-71
2021/04/30 08:56:03;;;;;;;11.43;8.63;;;;;;;;;;5035149;28;20447;-71
2021/04/30 08:58:37;;;;;;;12.73;9.50;;;;;;;;;;5036193;28;20462;-72
2021/04/30 09:01:07;;;;;;;14.17;9.13;;;;;;;;;;5034004;28;20499;-72
2021/04/30 09:03:43;;;;;;;11.73;9.53;;;;;;;;;;5036124;28;20470;-72
2021/04/30 09:06:19;;;;;;;17.40;10.10;;;;;;;;;;5035014;28;20571;-72
2021/04/30 09:08:48;;;;;;;23.53;15.37;;;;;;;;;;5026519;28;20509;-71
2021/04/30 09:11:40;;;;;;;13.57;10.30;;;;;;;;;;5016314;28;20503;-73
2021/04/30 09:14:36;;;;;;;12.20;8.60;;;;;;;;;;5013497;28;20862;-71
2021/04/30 09:17:07;;;;;;;8.90;7.50;;;;;;;;;;5034579;28;20463;-71
2021/04/30 09:19:45;;;;;;;13.93;9.10;;;;;;;;;;5032294;28;20713;-72
2021/04/30 09:22:30;;;;;;;10.80;8.63;;;;;;;;;;5015845;28;20572;-72
2021/04/30 09:25:01;;;;;;;13.47;8.70;;;;;;;;;;5015200;28;20490;-71
2021/04/30 09:27:36;;;;;;;13.00;8.50;;;;;;;;;;5015748;28;20459;-70
2021/04/30 09:30:30;;;;;;;12.03;8.93;;;;;;;;;;5015619;28;20494;-71
2021/04/30 09:33:05;;;;;;;14.33;9.10;;;;;;;;;;5016622;28;20467;-70
2021/04/30 09:35:33;;;;;;;13.27;9.80;;;;;;;;;;5015796;28;20473;-69
2021/04/30 09:38:01;;;;;;;11.70;8.50;;;;;;;;;;5016770;28;20464;-71
2021/04/30 09:40:31;;;;;;;10.00;7.90;;;;;;;;;;5033596;28;20469;-71
2021/04/30 09:43:23;;;;;;;13.10;8.97;;;;;;;;;;5033837;28;20455;-70
2021/04/30 09:45:51;;;;;;;13.53;10.67;;;;;;;;;;5035394;28;20867;-71
2021/04/30 09:48:18;;;;;;;13.50;8.43;;;;;;;;;;5034943;28;20565;-70
2021/04/30 09:50:47;;;;;;;11.57;9.70;;;;;;;;;;5035383;28;20494;-72
2021/04/30 09:53:22;;;;;;;13.23;9.03;;;;;;;;;;5030717;28;20463;-71
2021/04/30 09:56:15;;;;;;;13.90;9.10;;;;;;;;;;5035538;28;20454;-71
2021/04/30 09:58:46;;;;;;;14.40;9.53;;;;;;;;;;5033939;28;20606;-71
2021/04/30 10:01:24;;;;;;;10.20;7.70;;;;;;;;;;5032098;28;20463;-72
2021/04/30 10:03:54;;;;;;;12.40;9.37;;;;;;;;;;5027506;28;20475;-71
2021/04/30 10:06:33;;;;;;;12.83;7.77;;;;;;;;;;5022962;28;20502;-71
2021/04/30 10:09:10;;;;;;;11.20;8.20;;;;;;;;;;5032045;28;20454;-71
2021/04/30 10:11:42;;;;;;;11.10;9.00;;;;;;;;;;5024156;28;20442;-71
2021/04/30 10:14:09;;;;;;;11.37;8.17;;;;;;;;;;5035396;28;20537;-71
2021/04/30 10:16:40;;;;;;;17.83;8.93;;;;;;;;;;5032992;28;20459;-71
2021/04/30 10:19:11;;;;;;;10.80;7.70;;;;;;;;;;5033434;28;20466;-71
2021/04/30 10:21:41;;;;;;;10.23;7.53;;;;;;;;;;5034310;28;20492;-70
2021/04/30 10:24:19;;;;;;;13.17;8.40;;;;;;;;;;5035521;28;20474;-71
2021/04/30 10:26:47;;;;;;;8.47;6.13;;;;;;;;;;5031750;28;20885;-70
2021/04/30 10:29:17;;;;;;;10.07;7.03;;;;;;;;;;5034989;28;20459;-69
2021/04/30 10:31:46;;;;;;;11.27;7.50;;;;;;;;;;5038281;28;20487;-69
2021/04/30 10:34:19;;;;;;;10.60;8.57;;;;;;;;;;5038669;28;20489;-70
2021/04/30 10:36:48;;;;;;;10.40;7.07;;;;;;;;;;5038567;28;20486;-70
2021/04/30 10:39:24;;;;;;;12.10;7.40;;;;;;;;;;5038460;28;20447;-70
2021/04/30 10:41:51;;;;;;;11.07;6.50;;;;;;;;;;5040216;28;20469;-70
2021/04/30 10:44:26;;;;;;;7.50;6.33;;;;;;;;;;5037760;28;20455;-70
2021/04/30 10:47:14;;;;;;;9.93;7.27;;;;;;;;;;5039567;28;20798;-70
2021/04/30 10:49:44;;;;;;;9.67;7.27;;;;;;;;;;5037205;28;20832;-70
2021/04/30 10:52:23;;;;;;;9.13;6.40;;;;;;;;;;5037045;28;20461;-70
2021/04/30 10:55:06;;;;;;;8.93;5.60;;;;;;;;;;5028647;28;20515;-71
2021/04/30 10:57:47;;;;;;;8.27;6.87;;;;;;;;;;5036090;28;20455;-71
2021/04/30 11:00:15;;;;;;;9.00;7.13;;;;;;;;;;5035572;28;20458;-71
2021/04/30 11:02:43;;;;;;;10.93;6.73;;;;;;;;;;5037825;28;20561;-71
2021/04/30 11:05:16;;;;;;;9.67;7.30;;;;;;;;;;5036136;28;20494;-72
2021/04/30 11:08:05;;;;;;;11.90;8.50;;;;;;;;;;5038739;28;20477;-70
2021/04/30 11:10:40;;;;;;;9.03;6.53;;;;;;;;;;5037313;28;20577;-71
2021/04/30 11:13:14;;;;;;;11.23;6.90;;;;;;;;;;5038139;28;20483;-70
2021/04/30 11:15:56;;;;;;;9.73;7.50;;;;;;;;;;5037117;28;20462;-70
2021/04/30 11:18:26;;;;;;;10.40;6.07;;;;;;;;;;5037691;28;20512;-72
2021/04/30 11:21:09;;;;;;;8.70;6.83;;;;;;;;;;5038430;28;20542;-70
2021/04/30 11:23:43;;;;;;;8.17;6.73;;;;;;;;;;5035432;28;20470;-70
2021/04/30 11:26:15;;;;;;;10.63;7.30;;;;;;;;;;5029850;28;20533;-71
2021/04/30 11:29:12;;;;;;;10.70;7.63;;;;;;;;;;5028882;28;20460;-71
2021/04/30 11:31:51;;;;;;;8.50;6.70;;;;;;;;;;5035727;28;20450;-72
2021/04/30 11:34:32;;;;;;;10.20;8.60;;;;;;;;;;5035990;28;20465;-71
2021/04/30 11:37:03;;;;;;;11.83;8.07;;;;;;;;;;5025074;28;20535;-71
2021/04/30 11:39:35;;;;;;;8.27;6.80;;;;;;;;;;5025557;28;20470;-72
2021/04/30 11:42:13;;;;;;;9.03;6.83;;;;;;;;;;5020113;28;21067;-71
2021/04/30 11:44:44;;;;;;;8.00;6.10;;;;;;;;;;5029038;28;20470;-72
2021/04/30 11:47:15;;;;;;;8.90;6.27;;;;;;;;;;5037861;28;20459;-72
2021/04/30 11:49:46;;;;;;;7.70;6.07;;;;;;;;;;5039842;28;20529;-71
2021/04/30 11:52:13;;;;;;;10.07;6.83;;;;;;;;;;5036004;28;20443;-72
2021/04/30 11:55:03;;;;;;;8.60;5.67;;;;;;;;;;5028549;28;20491;-72
2021/04/30 11:57:31;;;;;;;8.27;6.10;;;;;;;;;;5037969;28;20458;-72
2021/04/30 11:59:59;;;;;;;11.87;9.17;;;;;;;;;;5018658;28;20872;-72
2021/04/30 12:02:47;;;;;;;7.40;6.10;;;;;;;;;;5018113;28;20876;-73
2021/04/30 12:05:15;;;;;;;11.70;7.37;;;;;;;;;;5015947;28;20538;-72
2021/04/30 12:07:47;;;;;;;9.00;6.50;;;;;;;;;;5017924;28;20551;-72
2021/04/30 12:10:23;;;;;;;7.80;6.27;;;;;;;;;;5016824;28;20491;-72
2021/04/30 12:12:54;;;;;;;9.20;6.63;;;;;;;;;;5016072;28;20467;-71
2021/04/30 12:15:41;;;;;;;10.43;6.60;;;;;;;;;;5015814;28;20476;-72
2021/04/30 12:18:10;;;;;;;9.70;6.33;;;;;;;;;;5036535;28;20807;-72
2021/04/30 12:20:41;;;;;;;6.90;6.10;;;;;;;;;;5035892;28;20467;-72
2021/04/30 12:23:13;;;;;;;8.57;7.03;;;;;;;;;;5035639;28;20486;-72
2021/04/30 12:25:43;;;;;;;7.73;6.30;;;;;;;;;;5040509;28;20818;-74
2021/04/30 12:28:16;;;;;;;8.70;7.50;;;;;;;;;;5037796;28;20509;-72
2021/04/30 12:30:49;;;;;;;9.50;6.37;;;;;;;;;;5037956;28;20487;-72
2021/04/30 12:33:30;;;;;;;9.00;6.93;;;;;;;;;;5035546;28;20451;-73
2021/04/30 12:36:08;;;;;;;9.20;7.20;;;;;;;;;;5034831;28;20476;-73
2021/04/30 12:38:35;;;;;;;9.43;7.03;;;;;;;;;;5033883;28;20454;-72
2021/04/30 12:41:07;;;;;;;11.50;7.20;;;;;;;;;;5035514;28;20474;-73
2021/04/30 12:43:37;;;;;;;11.90;7.37;;;;;;;;;;5036217;28;20461;-72
2021/04/30 12:46:17;;;;;;;9.03;6.97;;;;;;;;;;5036512;28;20474;-73
2021/04/30 12:48:56;;;;;;;8.37;7.23;;;;;;;;;;5035902;28;20565;-73
2021/04/30 12:51:27;;;;;;;10.43;7.97;;;;;;;;;;5035004;28;20550;-73
2021/04/30 12:53:56;;;;;;;10.17;6.50;;;;;;;;;;5034437;28;20478;-73
2021/04/30 12:56:28;;;;;;;10.00;7.37;;;;;;;;;;5022005;28;20452;-72
2021/04/30 12:59:10;;;;;;;9.50;7.53;;;;;;;;;;5015608;28;20503;-72
2021/04/30 13:01:38;;;;;;;8.60;7.70;;;;;;;;;;5016007;28;20503;-71
2021/04/30 13:04:07;;;;;;;9.87;8.20;;;;;;;;;;5015573;28;20463;-71
2021/04/30 13:06:43;;;;;;;10.23;8.00;;;;;;;;;;5023626;28;20463;-72
2021/04/30 13:09:14;;;;;;;11.23;8.53;;;;;;;;;;5036373;28;20474;-71
2021/04/30 13:11:42;;;;;;;9.63;7.90;;;;;;;;;;5035573;28;20502;-72
2021/04/30 13:14:12;;;;;;;13.57;9.97;;;;;;;;;;5036132;28;20466;-72
2021/04/30 13:16:49;;;;;;;10.23;8.17;;;;;;;;;;5036976;28;20462;-72
2021/04/30 13:19:17;;;;;;;10.03;8.00;;;;;;;;;;5037731;28;20540;-72
2021/04/30 13:21:59;;;;;;;11.40;7.63;;;;;;;;;;5036919;28;20466;-71
2021/04/30 13:24:27;;;;;;;11.93;9.30;;;;;;;;;;5033325;28;20610;-72
2021/04/30 13:27:02;;;;;;;11.63;9.10;;;;;;;;;;5036464;28;20459;-71
2021/04/30 13:29:31;;;;;;;10.73;8.50;;;;;;;;;;5036773;28;21078;-69
2021/04/30 13:32:02;;;;;;;12.10;8.00;;;;;;;;;;5037091;28;20573;-72
2021/04/30 13:34:40;;;;;;;12.33;8.60;;;;;;;;;;5035584;28;20855;-70
2021/04/30 13:37:09;;;;;;;9.70;8.10;;;;;;;;;;5036404;28;20470;-72
2021/04/30 13:39:38;;;;;;;11.87;8.37;;;;;;;;;;5035896;28;20454;-71
2021/04/30 13:42:11;;;;;;;12.10;8.70;;;;;;;;;;5034267;28;20458;-72
2021/04/30 13:44:42;;;;;;;8.93;8.00;;;;;;;;;;5032446;28;20855;-71
2021/04/30 13:47:20;;;;;;;14.67;12.07;;;;;;;;;;5034574;28;20879;-71
2021/04/30 13:49:48;;;;;;;12.07;8.37;;;;;;;;;;5034172;28;20487;-71
2021/04/30 13:52:19;;;;;;;8.67;7.70;;;;;;;;;;5036120;28;20794;-73
2021/04/30 13:57:34;;;;;;;9.73;7.40;;;;;;;;;;5016366;28;20477;-71
2021/04/30 14:00:12;;;;;;;9.13;6.70;;;;;;;;;;5034739;28;20545;-73
2021/04/30 14:02:40;;;;;;;8.00;6.73;;;;;;;;;;5035067;28;20459;-72
2021/04/30 14:05:14;;;;;;;9.40;7.60;;;;;;;;;;5036749;28;20469;-74
2021/04/30 14:07:45;;;;;;;10.23;7.70;;;;;;;;;;5041152;28;20466;-73
2021/04/30 14:10:15;;;;;;;15.43;7.50;;;;;;;;;;5040982;28;20489;-72
2021/04/30 14:12:49;;;;;;;9.77;7.33;;;;;;;;;;5041887;28;20757;-71
2021/04/30 14:15:38;;;;;;;8.40;6.97;;;;;;;;;;5041576;28;20502;-70
2021/04/30 14:18:16;;;;;;;8.80;7.00;;;;;;;;;;5025466;28;20733;-71
2021/04/30 14:20:57;;;;;;;;;;;;;;;;;;;;;
2021/04/30 14:29:23;;;;;;;8.90;6.87;;;;;;;;;;5031759;28;20465;-70
2021/04/30 14:32:15;;;;;;;9.13;7.33;;;;;;;;;;5043739;28;20893;-72
2021/04/30 14:34:47;;;;;;;8.33;6.83;;;;;;;;;;5029885;28;20470;-71
2021/04/30 14:37:33;;;;;;;7.50;5.77;;;;;;;;;;5045432;28;20515;-71
2021/04/30 14:40:08;;;;;;;10.10;7.10;;;;;;;;;;5039771;28;20531;-71
2021/04/30 14:42:39;;;;;;;7.90;5.70;;;;;;;;;;5042445;28;20549;-71
2021/04/30 14:45:26;;;;;;;10.83;6.50;;;;;;;;;;5044356;28;20522;-71
2021/04/30 14:48:06;;;;;;;9.73;6.40;;;;;;;;;;5045147;28;20472;-71
2021/04/30 14:50:52;;;;;;;10.07;8.17;;;;;;;;;;5043153;28;20510;-70
2021/04/30 14:53:36;;;;;;;15.30;10.10;;;;;;;;;;5044306;28;20766;-71
2021/04/30 14:56:12;;;;;;;13.23;7.13;;;;;;;;;;5042660;28;20474;-71
2021/04/30 14:59:05;;;;;;;7.80;6.33;;;;;;;;;;5044651;28;20465;-71
2021/04/30 15:01:38;;;;;;;7.50;6.03;;;;;;;;;;5042022;28;20887;-71
2021/04/30 15:04:13;;;;;;;7.63;5.73;;;;;;;;;;5041634;28;20883;-71
2021/04/30 15:06:53;;;;;;;9.20;5.87;;;;;;;;;;5043512;28;20480;-72
2021/04/30 15:09:22;;;;;;;7.83;6.10;;;;;;;;;;5042528;28;20455;-72
2021/04/30 15:12:03;;;;;;;8.43;6.23;;;;;;;;;;5044299;28;20555;-71
2021/04/30 15:14:51;;;;;;;8.40;6.30;;;;;;;;;;5038171;28;20545;-71